Newnan, GA (30263)

3:15 PM EST on January 18, 2017 (GMT -0500)
KM4UCV | | Change Station

Elev 938 ft 33.37 °N, 84.82 °W | Updated 5 seconds ago

Overcast
Overcast
67.8 °F
Feels Like 67.8 °F
N
1.1
Wind Variable Wind from SW

Today
High -- | Low -- °F
--% Chance of Precip.
Yesterday
High -- | Low -- °F
Precip. -- in
Pressure 30.10 in
Visibility 10.0 miles
Clouds Few 2500 ft
Mostly Cloudy 3800 ft
Overcast 5000 ft
Dew Point 60 °F
Humidity 75%
Rainfall 0.04 in
Snow Depth Not available.
7:42 AM 5:57 PM
Waning Gibbous, 60% visible
METAR KFFC 181953Z AUTO VRB06KT 10SM FEW025 BKN038 OVC050 20/14 A3011 RMK AO2 SLP193 T02000139
Pressure 30.10 in
Visibility 10.0 miles
Clouds Few 2500 ft
Mostly Cloudy 3800 ft
Overcast 5000 ft
Dew Point 60 °F
Humidity 75%
Rainfall 0.04 in
Snow Depth Not available.
7:42 AM 5:57 PM
Waning Gibbous, 60% visible
METAR KFFC 181953Z AUTO VRB06KT 10SM FEW025 BKN038 OVC050 20/14 A3011 RMK AO2 SLP193 T02000139

Get Your Daily Forecast Email!

Thanks for signing up!

Be on the lookout for a verification email in your inbox.

You'll start receiving the daily forecast at 8 AM.

×

10-Day Weather Forecast

Almanac

Astronomy

Jan. 18, 2017 Rise Set
Actual Time
Civil Twilight
Nautical Twilight
Astronomical Twilight
Moon
Length of Visible Light
Length of Day
Tomorrow will be .
, % of the Moon is Illuminated

Today's Extremes

State Highs State Lows

Community

WunderPhotos

Upload Photos

1,962,540 photos uploaded!

WunderBlog® & News

Nearby

Air Quality

  Air Quality AQ Index Pollutant
Not available.

Snow Depth

Station Depth Elevation

Earthquake Activity

City Distance Mag. Time & Date
Minimum magnitude displayed is 2.5.

Coastal Water Temperatures

Place Temperature

Stations

Nearby Weather Stations

Station Location Temp. Windchill Dew Point Humidity Wind Precip. Elev Updated Type
                   

Watches & Warnings

There are currently no watches in effect.